createdAt,value
2023-03-17T00:03:58.776Z,4.51
2023-03-17T00:14:04.556Z,4.49
2023-03-17T00:24:14.725Z,4.48
2023-03-17T00:34:20.836Z,4.36
2023-03-17T00:44:25.411Z,4.43
2023-03-17T00:54:30.412Z,4.42
2023-03-17T01:04:35.178Z,4.43
2023-03-17T01:14:40.802Z,4.44
2023-03-17T01:24:44.511Z,4.23
2023-03-17T01:34:49.560Z,4.44
2023-03-17T01:45:02.150Z,4.50
2023-03-17T01:55:11.403Z,4.35
2023-03-17T02:05:18.846Z,4.24
2023-03-17T02:15:39.148Z,4.00
2023-03-17T02:25:47.291Z,3.84
2023-03-17T02:35:51.119Z,3.73
2023-03-17T02:45:56.143Z,3.74
2023-03-17T02:55:59.940Z,3.69
2023-03-17T03:06:05.264Z,3.79
2023-03-17T03:16:10.149Z,3.72
2023-03-17T03:26:15.128Z,3.60
2023-03-17T03:36:18.867Z,3.45
2023-03-17T03:46:23.956Z,3.34
2023-03-17T03:56:27.692Z,3.41
2023-03-17T04:06:32.733Z,3.23
2023-03-17T04:16:36.472Z,3.11
2023-03-17T04:26:41.579Z,3.15
2023-03-17T04:36:46.581Z,3.02
2023-03-17T04:46:51.977Z,2.89
2023-03-17T04:56:56.128Z,2.81
2023-03-17T05:07:03.370Z,2.66
2023-03-17T05:17:07.448Z,2.61
2023-03-17T05:27:12.796Z,2.66
2023-03-17T05:37:16.637Z,2.62
2023-03-17T05:47:22.776Z,2.74
2023-03-17T05:57:26.529Z,2.58
2023-03-17T06:07:41.274Z,2.65
2023-03-17T06:17:48.591Z,3.12
2023-03-17T06:27:54.826Z,3.36
2023-03-17T06:37:58.488Z,3.59
2023-03-17T06:48:03.596Z,4.00
2023-03-17T06:58:07.234Z,4.49
2023-03-17T07:08:16.230Z,5.06
2023-03-17T07:18:19.931Z,5.71
2023-03-17T07:28:25.710Z,6.27
2023-03-17T07:38:29.393Z,6.65
2023-03-17T07:48:36.477Z,7.21
2023-03-17T07:58:40.269Z,7.84
2023-03-17T08:08:46.092Z,8.48
2023-03-17T08:18:49.870Z,9.13
2023-03-17T08:28:54.897Z,9.19
2023-03-17T08:38:59.020Z,9.40
2023-03-17T08:49:04.473Z,9.85
2023-03-17T08:59:09.453Z,10.23
2023-03-17T09:09:14.863Z,11.26
2023-03-17T09:19:18.621Z,11.77
2023-03-17T09:29:23.590Z,12.14
2023-03-17T09:39:27.493Z,12.17
2023-03-17T09:49:44.694Z,12.35
2023-03-17T09:59:55.090Z,12.76
2023-03-17T10:10:05.169Z,13.04
2023-03-17T10:20:14.720Z,12.96
2023-03-17T10:30:23.365Z,13.26
2023-03-17T10:40:30.502Z,13.69
2023-03-17T10:50:40.990Z,13.89
2023-03-17T11:00:57.734Z,14.20
2023-03-17T11:11:08.365Z,14.63
2023-03-17T11:21:17.411Z,14.75
2023-03-17T11:31:31.242Z,14.87
2023-03-17T11:41:52.168Z,15.22
2023-03-17T11:52:08.554Z,15.36
2023-03-17T12:02:23.531Z,15.50
2023-03-17T12:12:36.646Z,15.94
2023-03-17T12:22:45.889Z,16.16
2023-03-17T12:33:00.205Z,15.75
2023-03-17T12:43:33.358Z,15.84
2023-03-17T12:53:39.883Z,15.92
2023-03-17T13:03:58.935Z,15.92
2023-03-17T13:14:26.376Z,16.25
2023-03-17T13:24:51.920Z,16.08
2023-03-17T13:35:23.453Z,15.96
2023-03-17T13:45:39.209Z,16.18
2023-03-17T13:56:11.961Z,16.25
2023-03-17T14:06:18.741Z,16.45
2023-03-17T14:16:29.435Z,16.30
2023-03-17T14:26:33.984Z,16.45
2023-03-17T14:36:38.948Z,16.85
2023-03-17T14:46:42.647Z,16.97
2023-03-17T14:56:52.655Z,16.96
2023-03-17T15:06:58.166Z,16.10
2023-03-17T15:17:07.876Z,16.19
2023-03-17T15:27:17.047Z,15.97
2023-03-17T15:37:24.589Z,15.72
2023-03-17T15:47:31.951Z,15.52
2023-03-17T15:57:37.217Z,15.38
2023-03-17T16:07:41.653Z,15.33
2023-03-17T16:17:48.627Z,15.03
2023-03-17T16:27:54.054Z,14.90
2023-03-17T16:37:59.071Z,14.49
2023-03-17T16:48:04.701Z,14.21
2023-03-17T16:58:20.078Z,14.09
2023-03-17T17:08:23.775Z,13.82
2023-03-17T17:18:29.018Z,13.59
2023-03-17T17:28:33.033Z,13.28
2023-03-17T17:38:38.142Z,13.05
2023-03-17T17:48:41.796Z,12.90
2023-03-17T17:58:47.431Z,12.72
2023-03-17T18:08:54.118Z,12.63
2023-03-17T18:19:00.327Z,12.40
2023-03-17T18:29:04.698Z,12.12
2023-03-17T18:39:09.713Z,11.92
2023-03-17T18:49:13.288Z,11.76
2023-03-17T18:59:18.267Z,11.67
2023-03-17T19:09:22.301Z,11.42
2023-03-17T19:19:27.373Z,11.22
2023-03-17T19:29:31.185Z,11.10
2023-03-17T19:39:37.552Z,10.95
2023-03-17T19:49:41.922Z,10.87
2023-03-17T19:59:47.259Z,10.90
2023-03-17T20:09:51.219Z,10.64
2023-03-17T20:19:56.431Z,10.47
2023-03-17T20:30:00.249Z,10.50
2023-03-17T20:40:08.320Z,10.41
2023-03-17T20:50:13.432Z,10.38
2023-03-17T21:00:22.152Z,10.45
2023-03-17T21:10:26.010Z,10.53
2023-03-17T21:20:31.407Z,10.28
2023-03-17T21:30:36.930Z,10.08
2023-03-17T21:40:42.854Z,9.97
2023-03-17T21:50:46.619Z,9.99
2023-03-17T22:00:52.370Z,10.04
2023-03-17T22:10:56.542Z,10.15
2023-03-17T22:21:02.648Z,10.23
2023-03-17T22:31:13.309Z,10.31
2023-03-17T22:41:22.449Z,10.32
2023-03-17T22:51:27.511Z,10.24
2023-03-17T23:01:33.225Z,9.91
2023-03-17T23:11:37.424Z,9.84
2023-03-17T23:21:42.640Z,9.83
2023-03-17T23:31:46.592Z,9.82
2023-03-17T23:41:51.684Z,9.90
2023-03-17T23:51:55.313Z,9.92
